Time;durP1;ratioP1;P1;durP2;ratioP2;P2;SDS_P1;SDS_P2;PMS_P1;PMS_P2;Temp;Humidity;BMP_temperature;BMP_pressure;BME280_temperature;BME280_humidity;BME280_pressure;Samples;Min_cycle;Max_cycle;Signal;HPM_P1;HPM_P2
2022/12/13 00:01:44;;;;;;;67.00;31.02;;;-3.20;99.90;;;;;;5027940;28;20041;-61
2022/12/13 00:04:10;;;;;;;68.70;30.15;;;-3.20;99.90;;;;;;5015791;28;20045;-60
2022/12/13 00:06:36;;;;;;;68.63;30.45;;;-3.20;99.90;;;;;;5041645;28;20055;-59
2022/12/13 00:09:03;;;;;;;78.18;30.25;;;-3.20;99.90;;;;;;5016059;28;20045;-61
2022/12/13 00:11:29;;;;;;;64.03;29.20;;;-3.20;99.90;;;;;;5024694;28;20057;-61
2022/12/13 00:13:55;;;;;;;62.30;29.67;;;-3.20;99.90;;;;;;5029100;28;20103;-61
2022/12/13 00:16:23;;;;;;;64.15;30.30;;;-3.20;99.90;;;;;;5026983;28;20079;-61
2022/12/13 00:18:54;;;;;;;63.28;29.67;;;-3.20;99.90;;;;;;5026630;28;20087;-60
2022/12/13 00:21:22;;;;;;;60.10;29.67;;;-3.20;99.90;;;;;;5027816;28;20049;-61
2022/12/13 00:23:48;;;;;;;62.15;28.58;;;-3.20;99.90;;;;;;5031283;28;20046;-60
2022/12/13 00:26:16;;;;;;;57.08;26.95;;;-3.30;99.90;;;;;;5028770;28;20072;-60
2022/12/13 00:28:42;;;;;;;57.95;26.73;;;-3.30;99.90;;;;;;5029248;28;20354;-60
2022/12/13 00:31:09;;;;;;;56.75;27.17;;;-3.30;99.90;;;;;;5025432;28;20127;-60
2022/12/13 00:33:36;;;;;;;59.67;26.92;;;-3.40;99.90;;;;;;5026218;28;20102;-61
2022/12/13 00:36:04;;;;;;;55.38;27.10;;;-3.40;99.90;;;;;;5030248;28;20081;-60
2022/12/13 00:38:30;;;;;;;54.35;27.10;;;-3.50;99.90;;;;;;5036601;28;20057;-60
2022/12/13 00:40:55;;;;;;;61.47;28.35;;;-3.50;99.90;;;;;;5010360;28;20049;-60
2022/12/13 00:43:21;;;;;;;57.00;27.38;;;-3.50;99.90;;;;;;5031279;28;20048;-60
2022/12/13 00:45:47;;;;;;;56.47;26.20;;;-3.50;99.90;;;;;;5030508;28;20140;-61
2022/12/13 00:48:13;;;;;;;54.10;26.75;;;-3.60;99.90;;;;;;5026622;28;20585;-60
2022/12/13 00:50:39;;;;;;;60.10;27.67;;;-3.60;99.90;;;;;;5010223;28;20056;-61
2022/12/13 00:53:05;;;;;;;59.55;27.50;;;-3.60;99.90;;;;;;5032914;28;20053;-59
2022/12/13 00:55:31;;;;;;;54.13;26.08;;;-3.60;99.90;;;;;;5022093;28;20707;-59
2022/12/13 00:57:57;;;;;;;52.42;26.52;;;-3.60;99.90;;;;;;5034175;28;20479;-60
2022/12/13 01:00:24;;;;;;;53.05;25.50;;;-3.60;99.90;;;;;;5032114;28;20124;-59
2022/12/13 01:02:52;;;;;;;55.50;26.27;;;-3.60;99.90;;;;;;5004830;28;20041;-60
2022/12/13 01:05:18;;;;;;;58.13;26.77;;;-3.60;99.90;;;;;;5017142;28;20079;-60
2022/12/13 01:07:44;;;;;;;57.58;25.33;;;-3.60;99.90;;;;;;5035964;28;20045;-59
2022/12/13 01:10:11;;;;;;;58.63;27.70;;;-3.60;99.90;;;;;;5031789;28;20452;-61
2022/12/13 01:12:37;;;;;;;56.95;26.85;;;-3.60;99.90;;;;;;5031294;28;20054;-61
2022/12/13 01:15:04;;;;;;;60.60;26.85;;;-3.60;99.90;;;;;;5020717;28;20207;-60
2022/12/13 01:17:30;;;;;;;54.90;27.17;;;-3.60;99.90;;;;;;5033593;28;20435;-61
2022/12/13 01:19:56;;;;;;;53.55;25.00;;;-3.60;99.90;;;;;;5030847;28;20056;-59
2022/12/13 01:22:22;;;;;;;55.53;25.98;;;-3.60;99.90;;;;;;5033569;28;20403;-60
2022/12/13 01:24:48;;;;;;;50.63;25.40;;;-3.60;99.90;;;;;;5020358;28;20106;-59
2022/12/13 01:27:14;;;;;;;54.13;24.85;;;-3.70;99.90;;;;;;5026293;28;20052;-61
2022/12/13 01:29:39;;;;;;;49.83;25.25;;;-3.70;99.90;;;;;;5029243;28;20046;-60
2022/12/13 01:32:05;;;;;;;53.42;24.15;;;-3.70;99.90;;;;;;5029505;28;20080;-61
2022/12/13 01:34:31;;;;;;;53.03;25.02;;;-3.70;99.90;;;;;;5026862;28;20124;-59
2022/12/13 01:36:57;;;;;;;52.30;25.08;;;-3.70;99.90;;;;;;5033119;28;21332;-60
2022/12/13 01:39:23;;;;;;;52.05;24.05;;;-3.70;99.90;;;;;;5046706;28;20076;-61
2022/12/13 01:41:58;;;;;;;59.88;25.33;;;-3.80;99.90;;;;;;5030610;28;20459;-59
2022/12/13 01:44:54;;;;;;;52.38;25.50;;;-3.80;99.90;;;;;;5031823;28;20049;-59
2022/12/13 01:47:35;;;;;;;49.38;25.08;;;-3.70;99.90;;;;;;5030431;28;20427;-59
2022/12/13 01:50:07;;;;;;;53.90;25.60;;;-3.80;99.90;;;;;;5029269;28;20799;-59
2022/12/13 01:52:33;;;;;;;51.42;24.85;;;-3.80;99.90;;;;;;5029823;28;20523;-61
2022/12/13 01:55:03;;;;;;;49.60;23.98;;;-3.80;99.90;;;;;;5030780;28;20073;-59
2022/12/13 01:57:31;;;;;;;49.72;24.08;;;-3.80;99.90;;;;;;5029152;28;20053;-59
2022/12/13 01:59:57;;;;;;;52.03;24.48;;;-3.80;99.90;;;;;;5025581;28;20242;-60
2022/12/13 02:02:23;;;;;;;46.78;22.92;;;-3.80;99.90;;;;;;5029835;28;20045;-60
2022/12/13 02:05:04;;;;;;;48.80;24.75;;;-3.90;99.90;;;;;;5017062;28;20048;-60
2022/12/13 02:07:32;;;;;;;48.47;23.15;;;-3.80;99.90;;;;;;5029044;28;20152;-59
2022/12/13 02:10:01;;;;;;;52.35;24.63;;;-3.90;99.90;;;;;;5020199;28;20049;-60
2022/12/13 02:12:29;;;;;;;46.42;23.23;;;-3.90;99.90;;;;;;5036449;28;20051;-61
2022/12/13 02:15:00;;;;;;;51.70;23.65;;;-4.00;99.90;;;;;;5014048;28;20052;-60
2022/12/13 02:17:47;;;;;;;49.05;23.75;;;-4.00;99.90;;;;;;5033772;28;20068;-59
2022/12/13 02:20:35;;;;;;;47.75;24.48;;;-4.00;99.90;;;;;;5026784;28;20080;-58
2022/12/13 02:23:10;;;;;;;49.97;24.48;;;-4.00;99.90;;;;;;5032632;28;20919;-59
2022/12/13 02:26:00;;;;;;;59.80;26.15;;;-4.10;99.90;;;;;;5013100;28;20048;-59
2022/12/13 02:28:39;;;;;;;56.58;26.25;;;-4.10;99.90;;;;;;5029661;28;20049;-62
2022/12/13 02:31:17;;;;;;;54.65;25.50;;;-4.10;99.90;;;;;;5025409;28;20052;-59
2022/12/13 02:33:54;;;;;;;48.45;25.40;;;-4.10;99.90;;;;;;5030629;28;20068;-62
2022/12/13 02:36:23;;;;;;;50.90;24.98;;;-4.10;99.90;;;;;;5029404;28;20048;-60
2022/12/13 02:38:58;;;;;;;53.30;25.83;;;-4.10;99.90;;;;;;5031067;28;20060;-59
2022/12/13 02:41:36;;;;;;;54.65;26.58;;;-4.00;99.90;;;;;;5027930;28;20057;-58
2022/12/13 02:44:22;;;;;;;57.55;25.75;;;-4.00;99.90;;;;;;5030434;28;20047;-60
2022/12/13 02:46:58;;;;;;;55.97;25.40;;;-4.00;99.90;;;;;;5021471;28;21176;-59
2022/12/13 02:49:28;;;;;;;47.83;25.13;;;-4.00;99.90;;;;;;5029859;28;20059;-60
2022/12/13 02:51:58;;;;;;;54.67;24.80;;;-4.00;99.90;;;;;;5032498;28;20132;-59
2022/12/13 02:54:24;;;;;;;50.47;24.63;;;-4.00;99.90;;;;;;5031554;28;20061;-58
2022/12/13 02:56:57;;;;;;;59.63;26.77;;;-4.10;99.90;;;;;;5011178;28;20049;-61
2022/12/13 02:59:32;;;;;;;49.10;25.10;;;-4.10;99.90;;;;;;5035760;28;20121;-59
2022/12/13 03:02:17;;;;;;;54.97;26.48;;;-4.10;99.90;;;;;;5029509;28;20060;-61
2022/12/13 03:06:28;;;;;;;51.35;25.25;;;-4.20;99.90;;;;;;5029264;28;20420;-59
2022/12/13 03:07:38;;;;;;;58.15;26.42;;;-4.20;99.90;;;;;;5031312;28;20503;-59
2022/12/13 03:10:19;;;;;;;57.58;26.48;;;-4.20;99.90;;;;;;5032782;28;20388;-59
2022/12/13 03:15:56;;;;;;;54.88;26.15;;;-4.20;99.90;;;;;;5028883;28;20162;-59
2022/12/13 03:18:25;;;;;;;50.78;25.30;;;-4.10;99.90;;;;;;5029773;28;20119;-59
2022/12/13 03:21:04;;;;;;;55.28;25.33;;;-4.20;99.90;;;;;;5028921;28;20049;-60
2022/12/13 03:23:30;;;;;;;52.90;24.92;;;-4.20;99.90;;;;;;5031973;28;20041;-60
2022/12/13 03:26:03;;;;;;;57.28;26.58;;;-4.10;99.90;;;;;;5028861;28;20037;-60
2022/12/13 03:28:29;;;;;;;50.00;24.95;;;-4.20;99.90;;;;;;5028853;28;20053;-59
2022/12/13 03:30:55;;;;;;;55.08;25.98;;;-4.10;99.90;;;;;;5027556;28;20103;-61
2022/12/13 03:33:21;;;;;;;51.92;25.35;;;-4.20;99.90;;;;;;5027018;28;20042;-62
2022/12/13 03:35:48;;;;;;;50.17;24.92;;;-4.10;99.90;;;;;;5028954;28;20788;-60
2022/12/13 03:38:16;;;;;;;50.60;24.83;;;-4.10;99.90;;;;;;5030518;28;20052;-60
2022/12/13 03:40:42;;;;;;;53.90;24.73;;;-4.10;99.90;;;;;;5026594;28;20391;-61
2022/12/13 03:43:08;;;;;;;52.55;25.73;;;-4.10;99.90;;;;;;5028786;28;20049;-61
2022/12/13 03:45:33;;;;;;;52.10;24.55;;;-4.10;99.90;;;;;;5027263;28;20375;-60
2022/12/13 03:47:59;;;;;;;58.47;26.50;;;-4.10;99.90;;;;;;5026793;28;20567;-61
2022/12/13 03:50:25;;;;;;;54.30;26.08;;;-4.10;99.90;;;;;;5027962;28;20184;-59
2022/12/13 03:52:57;;;;;;;52.22;25.70;;;-4.10;99.90;;;;;;5029052;28;20144;-60
2022/12/13 03:55:23;;;;;;;54.42;25.83;;;-4.10;99.90;;;;;;5022288;28;20049;-61
2022/12/13 03:57:49;;;;;;;55.83;26.35;;;-4.10;99.90;;;;;;4998665;28;20105;-60
2022/12/13 04:00:15;;;;;;;52.15;25.52;;;-4.10;99.90;;;;;;5019831;28;20057;-60
2022/12/13 04:02:41;;;;;;;50.10;24.58;;;-4.10;99.90;;;;;;5034422;28;20036;-61
2022/12/13 04:05:07;;;;;;;49.70;26.05;;;-4.10;99.90;;;;;;5027531;28;20042;-61
2022/12/13 04:07:32;;;;;;;55.83;26.23;;;-4.10;99.90;;;;;;5029901;28;20045;-59
2022/12/13 04:09:58;;;;;;;56.42;25.77;;;-4.10;99.90;;;;;;5026969;28;20056;-61
2022/12/13 04:15:08;;;;;;;50.97;26.20;;;-4.10;99.90;;;;;;5031291;28;20245;-61
2022/12/13 04:17:34;;;;;;;49.95;25.10;;;-4.10;99.90;;;;;;5032751;28;20135;-61
2022/12/13 04:20:00;;;;;;;47.72;24.38;;;-4.10;99.90;;;;;;5027357;28;20508;-60
2022/12/13 04:22:26;;;;;;;53.65;25.88;;;-4.10;99.90;;;;;;5018587;28;20045;-61
2022/12/13 04:24:52;;;;;;;50.97;26.35;;;-4.10;99.90;;;;;;5028309;28;20549;-60
2022/12/13 04:27:17;;;;;;;55.58;25.70;;;-4.10;99.90;;;;;;5031306;28;20068;-60
2022/12/13 04:29:43;;;;;;;47.92;25.10;;;-4.10;99.90;;;;;;5032660;28;20045;-60
2022/12/13 04:32:09;;;;;;;50.10;25.20;;;-4.10;99.90;;;;;;5044685;28;20033;-60
2022/12/13 04:34:35;;;;;;;48.78;25.42;;;-4.10;99.90;;;;;;5033790;28;20041;-62
2022/12/13 04:37:00;;;;;;;48.20;24.55;;;-4.10;99.90;;;;;;5033666;28;20179;-60
2022/12/13 04:39:26;;;;;;;48.47;25.08;;;-4.10;99.90;;;;;;5029752;28;20408;-62
2022/12/13 04:41:52;;;;;;;50.53;24.73;;;-4.10;99.90;;;;;;5029502;28;20049;-60
2022/12/13 04:44:18;;;;;;;49.75;25.25;;;-4.10;99.90;;;;;;5023162;28;20483;-60
2022/12/13 04:46:44;;;;;;;50.75;24.40;;;-4.10;99.90;;;;;;5031656;28;20082;-61
2022/12/13 04:49:10;;;;;;;51.05;24.73;;;-4.10;99.90;;;;;;5028775;28;20045;-61
2022/12/13 04:51:36;;;;;;;49.65;25.27;;;-4.10;99.90;;;;;;5020865;28;20049;-61
2022/12/13 04:54:02;;;;;;;43.45;24.35;;;-4.10;99.90;;;;;;5028575;28;20072;-60
2022/12/13 04:56:27;;;;;;;47.67;24.52;;;-4.10;99.90;;;;;;5031128;28;20057;-60
2022/12/13 04:58:54;;;;;;;45.40;23.95;;;-4.20;99.90;;;;;;5033487;28;20047;-62
2022/12/13 05:01:19;;;;;;;51.22;25.13;;;-4.20;99.90;;;;;;5012859;28;21199;-61
2022/12/13 05:03:45;;;;;;;49.08;24.30;;;-4.20;99.90;;;;;;5035498;28;20045;-61
2022/12/13 05:06:12;;;;;;;48.67;23.83;;;-4.20;99.90;;;;;;4997732;28;20080;-61
2022/12/13 05:08:39;;;;;;;49.55;24.90;;;-4.20;99.90;;;;;;5034728;28;20051;-60
2022/12/13 05:11:06;;;;;;;43.50;23.50;;;-4.20;99.90;;;;;;5033062;28;20041;-61
2022/12/13 05:13:32;;;;;;;51.15;24.63;;;-4.20;99.90;;;;;;5032512;28;20056;-60
2022/12/13 05:16:01;;;;;;;48.42;24.55;;;-4.20;99.90;;;;;;5036174;28;20057;-60
2022/12/13 05:18:27;;;;;;;48.13;24.35;;;-4.20;99.90;;;;;;5031455;28;20049;-60
2022/12/13 05:20:53;;;;;;;49.50;23.73;;;-4.20;99.90;;;;;;5029501;28;20052;-61
2022/12/13 05:23:20;;;;;;;47.28;23.42;;;-4.20;99.90;;;;;;5029960;28;20479;-61
2022/12/13 05:25:46;;;;;;;50.00;23.88;;;-4.20;99.90;;;;;;5030294;28;20364;-61
2022/12/13 05:28:12;;;;;;;46.13;23.38;;;-4.20;99.90;;;;;;5034395;28;20045;-61
2022/12/13 05:30:42;;;;;;;45.85;22.98;;;-4.20;99.90;;;;;;5031885;28;20052;-61
2022/12/13 05:33:08;;;;;;;54.13;25.70;;;-4.30;99.90;;;;;;5021354;28;20056;-61
2022/12/13 05:35:34;;;;;;;44.08;23.83;;;-4.30;99.90;;;;;;5030049;28;20059;-60
2022/12/13 05:38:00;;;;;;;44.38;23.73;;;-4.30;99.90;;;;;;5030036;28;21067;-62
2022/12/13 05:40:28;;;;;;;46.40;24.27;;;-4.30;99.90;;;;;;5029298;28;20056;-60
2022/12/13 05:42:54;;;;;;;43.55;23.98;;;-4.30;99.90;;;;;;5027413;28;20044;-60
2022/12/13 05:45:20;;;;;;;44.83;24.30;;;-4.30;99.90;;;;;;5029990;28;20045;-61
2022/12/13 05:47:46;;;;;;;45.80;23.73;;;-4.30;99.90;;;;;;5032773;28;20519;-60
2022/12/13 05:50:14;;;;;;;41.90;22.92;;;-4.30;99.90;;;;;;5031537;28;20037;-60
2022/12/13 05:52:40;;;;;;;42.65;21.52;;;-4.40;99.90;;;;;;5033684;28;20053;-60
2022/12/13 05:55:07;;;;;;;38.20;21.92;;;-4.40;99.90;;;;;;5006938;28;20151;-61
2022/12/13 05:57:33;;;;;;;44.58;21.95;;;-4.40;99.90;;;;;;5035939;28;20045;-61
2022/12/13 05:59:58;;;;;;;46.53;24.25;;;-4.40;99.90;;;;;;5032926;28;20068;-60
2022/12/13 06:02:24;;;;;;;44.42;24.00;;;-4.40;99.90;;;;;;5028218;28;20064;-59
2022/12/13 06:04:50;;;;;;;47.58;24.25;;;-4.40;99.90;;;;;;5031529;28;20048;-62
2022/12/13 06:07:16;;;;;;;44.88;24.00;;;-4.40;99.90;;;;;;5027868;28;20612;-62
2022/12/13 06:09:41;;;;;;;50.78;24.33;;;-4.40;99.90;;;;;;5033303;28;20102;-60
2022/12/13 06:12:11;;;;;;;45.55;23.98;;;-4.40;99.90;;;;;;5031109;28;20049;-61
2022/12/13 06:14:37;;;;;;;46.35;23.52;;;-4.40;99.90;;;;;;5029630;28;20809;-61
2022/12/13 06:17:03;;;;;;;44.03;23.23;;;-4.40;99.90;;;;;;5028170;28;20048;-61
2022/12/13 06:19:28;;;;;;;46.47;24.67;;;-4.40;99.90;;;;;;5024666;28;20049;-61
2022/12/13 06:21:54;;;;;;;44.70;22.75;;;-4.40;99.90;;;;;;5024490;28;20099;-60
2022/12/13 06:24:22;;;;;;;47.40;23.65;;;-4.40;99.90;;;;;;5032718;28;20052;-62
2022/12/13 06:26:48;;;;;;;45.33;23.77;;;-4.40;99.90;;;;;;5031024;28;20056;-60
2022/12/13 06:29:15;;;;;;;46.10;24.67;;;-4.40;99.90;;;;;;5029003;28;20828;-61
2022/12/13 06:31:41;;;;;;;47.88;25.23;;;-4.40;99.90;;;;;;5029985;28;20041;-60
2022/12/13 06:34:07;;;;;;;46.42;24.48;;;-4.40;99.90;;;;;;5023629;28;20068;-62
2022/12/13 06:36:33;;;;;;;47.78;24.67;;;-4.50;99.90;;;;;;5022598;28;20106;-60
2022/12/13 06:39:05;;;;;;;45.53;24.00;;;-4.40;99.90;;;;;;5028342;28;20055;-60
2022/12/13 06:41:32;;;;;;;50.33;24.98;;;-4.50;99.90;;;;;;5026121;28;20172;-59
2022/12/13 06:43:58;;;;;;;53.88;25.35;;;-4.50;99.90;;;;;;5030051;28;20042;-61
2022/12/13 06:46:24;;;;;;;46.25;24.73;;;-4.50;99.90;;;;;;5027850;28;20052;-59
2022/12/13 06:48:51;;;;;;;48.40;25.33;;;-4.40;99.90;;;;;;5028376;28;20040;-60
2022/12/13 06:51:17;;;;;;;50.60;26.30;;;-4.40;99.90;;;;;;5026599;28;20064;-60
2022/12/13 06:53:43;;;;;;;46.13;24.30;;;-4.40;99.90;;;;;;5030954;28;20041;-60
2022/12/13 06:56:12;;;;;;;48.63;24.13;;;-4.40;99.90;;;;;;5015408;28;20499;-61
2022/12/13 06:58:38;;;;;;;49.58;24.17;;;-4.40;99.90;;;;;;5029757;28;20049;-59
2022/12/13 07:01:07;;;;;;;50.67;24.52;;;-4.50;99.90;;;;;;5027935;28;20084;-61
2022/12/13 07:03:34;;;;;;;47.90;24.38;;;-4.50;99.90;;;;;;5030991;28;20064;-60
2022/12/13 07:06:06;;;;;;;47.72;25.10;;;-4.50;99.90;;;;;;5032906;28;20148;-60
2022/12/13 07:08:32;;;;;;;50.13;23.80;;;-4.50;99.90;;;;;;5025050;28;20055;-60
2022/12/13 07:10:58;;;;;;;48.70;23.75;;;-4.50;99.90;;;;;;5025056;28;20084;-61
2022/12/13 07:13:24;;;;;;;45.75;24.52;;;-4.50;99.90;;;;;;5024707;28;20075;-66
2022/12/13 07:15:49;;;;;;;48.40;24.65;;;-4.50;99.90;;;;;;5028047;28;20435;-66
2022/12/13 07:18:16;;;;;;;42.92;24.25;;;-4.50;99.90;;;;;;5005655;28;20045;-68
2022/12/13 07:20:43;;;;;;;46.60;24.17;;;-4.50;99.90;;;;;;5025511;28;20052;-68
2022/12/13 07:23:09;;;;;;;44.10;23.48;;;-4.50;99.90;;;;;;5030628;28;20040;-68
2022/12/13 07:25:35;;;;;;;47.08;24.55;;;-4.50;99.90;;;;;;5028150;28;20045;-68
2022/12/13 07:28:04;;;;;;;49.55;24.90;;;-4.50;99.90;;;;;;5034955;28;20072;-64
2022/12/13 07:30:32;;;;;;;46.67;25.13;;;-4.50;99.90;;;;;;5033119;28;20087;-67
2022/12/13 07:32:59;;;;;;;46.40;25.08;;;-4.50;99.90;;;;;;5023289;28;21021;-68
2022/12/13 07:35:25;;;;;;;50.92;25.25;;;-4.50;99.90;;;;;;5031389;28;20124;-67
2022/12/13 07:37:50;;;;;;;48.85;26.00;;;-4.50;99.90;;;;;;5032499;28;20139;-68
2022/12/13 07:40:17;;;;;;;51.55;25.77;;;-4.50;99.90;;;;;;5018985;28;20095;-64
2022/12/13 07:42:52;;;;;;;47.75;25.38;;;-4.50;99.90;;;;;;5022990;28;20122;-67
2022/12/13 07:45:18;;;;;;;51.42;24.80;;;-4.50;99.90;;;;;;5012672;28;20048;-65
2022/12/13 07:47:44;;;;;;;52.22;24.85;;;-4.50;99.90;;;;;;5018671;28;20048;-65
2022/12/13 07:50:11;;;;;;;47.22;24.95;;;-4.50;99.90;;;;;;5020227;28;20087;-68
2022/12/13 07:52:37;;;;;;;51.67;24.08;;;-4.50;99.90;;;;;;5010154;28;20063;-67
2022/12/13 07:55:05;;;;;;;50.65;25.75;;;-4.50;99.90;;;;;;5030736;28;20044;-66
2022/12/13 07:57:30;;;;;;;48.58;25.02;;;-4.50;99.90;;;;;;5030214;28;20052;-68
2022/12/13 07:59:57;;;;;;;46.33;25.83;;;-4.50;99.90;;;;;;5028374;28;20056;-68
2022/12/13 08:02:23;;;;;;;47.03;24.92;;;-4.50;99.90;;;;;;5031808;28;20052;-68
2022/12/13 08:04:49;;;;;;;50.92;25.63;;;-4.50;99.90;;;;;;5035704;28;20045;-67
2022/12/13 08:07:15;;;;;;;50.90;25.27;;;-4.40;99.90;;;;;;5033962;28;20049;-68
2022/12/13 08:09:40;;;;;;;44.63;24.15;;;-4.40;99.90;;;;;;5035301;28;20041;-66
2022/12/13 08:12:06;;;;;;;49.33;26.02;;;-4.40;99.90;;;;;;5017799;28;20079;-66
2022/12/13 08:14:32;;;;;;;53.10;25.75;;;-4.40;99.90;;;;;;5044519;28;20557;-68
2022/12/13 08:16:58;;;;;;;48.00;24.73;;;-4.40;99.90;;;;;;5033813;28;20072;-67
2022/12/13 08:19:24;;;;;;;55.63;26.00;;;-4.40;99.90;;;;;;5034806;28;20059;-68
2022/12/13 08:21:52;;;;;;;49.58;25.33;;;-4.40;99.90;;;;;;5041789;28;20099;-66
2022/12/13 08:24:19;;;;;;;50.40;24.45;;;-4.30;99.90;;;;;;5041139;28;20444;-69
2022/12/13 08:26:44;;;;;;;52.60;25.75;;;-4.30;99.90;;;;;;5035612;28;20049;-69
2022/12/13 08:29:14;;;;;;;55.50;25.88;;;-4.30;99.90;;;;;;5038363;28;20115;-66
2022/12/13 08:31:40;;;;;;;45.28;25.45;;;-4.30;99.90;;;;;;5035696;28;20052;-68
2022/12/13 08:34:06;;;;;;;49.20;25.30;;;-4.30;99.90;;;;;;5033771;28;20090;-68
2022/12/13 08:36:32;;;;;;;49.78;25.77;;;-4.30;99.90;;;;;;5034201;28;20079;-67
2022/12/13 08:39:01;;;;;;;53.38;25.77;;;-4.20;99.90;;;;;;5034838;28;20559;-68
2022/12/13 08:41:27;;;;;;;49.42;24.83;;;-4.20;99.90;;;;;;5005458;28;20045;-66
2022/12/13 08:43:53;;;;;;;51.50;25.90;;;-4.20;99.90;;;;;;5034459;28;20051;-69
2022/12/13 08:46:19;;;;;;;43.97;25.15;;;-4.20;99.90;;;;;;5035152;28;20041;-69
2022/12/13 08:48:45;;;;;;;52.60;25.63;;;-4.10;99.90;;;;;;5033973;28;20048;-69
2022/12/13 08:51:16;;;;;;;48.10;24.52;;;-4.10;99.90;;;;;;5027248;28;20068;-69
2022/12/13 08:53:42;;;;;;;54.67;27.15;;;-4.10;99.90;;;;;;5036226;28;20128;-69
2022/12/13 08:56:11;;;;;;;52.65;27.73;;;-4.00;99.90;;;;;;5033653;28;20045;-67
2022/12/13 08:58:38;;;;;;;58.40;26.63;;;-4.00;99.90;;;;;;5033368;28;20143;-69
2022/12/13 09:01:05;;;;;;;52.40;25.38;;;-4.00;99.90;;;;;;5033702;28;20498;-65
2022/12/13 09:03:31;;;;;;;51.75;27.27;;;-3.90;99.90;;;;;;5037470;28;20790;-69
2022/12/13 09:06:04;;;;;;;58.83;28.17;;;-3.90;99.90;;;;;;5020057;28;20045;-68
2022/12/13 09:08:29;;;;;;;60.40;29.20;;;-3.90;99.90;;;;;;5024086;28;20050;-66
2022/12/13 09:11:00;;;;;;;54.95;29.08;;;-3.80;99.90;;;;;;5032304;28;20075;-67
2022/12/13 09:13:27;;;;;;;54.90;27.83;;;-3.80;99.90;;;;;;5033504;28;20049;-69
2022/12/13 09:15:53;;;;;;;61.10;30.35;;;-3.80;99.90;;;;;;5011933;28;20061;-66
2022/12/13 09:18:19;;;;;;;55.75;28.05;;;-3.70;99.90;;;;;;5017712;28;20661;-69
2022/12/13 09:20:45;;;;;;;62.63;29.55;;;-3.70;99.90;;;;;;5016407;28;21159;-65
2022/12/13 09:23:10;;;;;;;53.97;29.23;;;-3.70;99.90;;;;;;5021575;28;21128;-65
2022/12/13 09:25:37;;;;;;;57.35;29.17;;;-3.70;99.90;;;;;;5014084;28;20041;-66
2022/12/13 09:28:04;;;;;;;56.97;28.63;;;-3.60;99.90;;;;;;5030799;28;20195;-70
2022/12/13 09:30:30;;;;;;;54.13;28.33;;;-3.60;99.90;;;;;;5037548;28;20045;-67
2022/12/13 09:32:56;;;;;;;52.97;28.60;;;-3.50;99.90;;;;;;5030014;28;20706;-67
2022/12/13 09:35:22;;;;;;;57.22;29.88;;;-3.50;99.90;;;;;;5031386;28;20051;-67
2022/12/13 09:37:47;;;;;;;62.95;30.33;;;-3.50;99.90;;;;;;5015421;28;20057;-69
2022/12/13 09:40:23;;;;;;;53.28;28.67;;;-3.40;99.90;;;;;;5032240;28;20056;-64
2022/12/13 09:42:52;;;;;;;58.63;28.40;;;-3.40;99.90;;;;;;5033063;28;20049;-68
2022/12/13 09:45:18;;;;;;;58.00;29.42;;;-3.40;99.90;;;;;;5029824;28;20120;-69
2022/12/13 09:47:47;;;;;;;59.58;29.83;;;-3.30;99.90;;;;;;5035337;28;20041;-69
2022/12/13 09:50:34;;;;;;;60.65;30.77;;;-3.30;99.90;;;;;;5047430;28;20071;-69
2022/12/13 09:53:03;;;;;;;58.08;29.23;;;-3.20;99.90;;;;;;5029970;28;20049;-69
2022/12/13 09:55:42;;;;;;;66.47;30.48;;;-3.20;99.90;;;;;;5029207;28;20068;-69
2022/12/13 09:58:17;;;;;;;53.88;29.05;;;-3.10;99.90;;;;;;5032841;28;20392;-66
2022/12/13 10:00:48;;;;;;;56.45;29.10;;;-3.10;99.90;;;;;;5032927;28;20333;-66
2022/12/13 10:03:15;;;;;;;62.80;30.45;;;-3.00;99.90;;;;;;5031671;28;20057;-66
2022/12/13 10:05:45;;;;;;;56.88;28.08;;;-2.90;99.90;;;;;;5031152;28;20037;-69
2022/12/13 10:08:15;;;;;;;57.35;29.95;;;-2.90;99.90;;;;;;5032368;28;20072;-69
2022/12/13 10:10:42;;;;;;;56.78;28.90;;;-2.80;99.90;;;;;;5012187;28;20045;-69
2022/12/13 10:13:35;;;;;;;56.75;29.25;;;-2.80;99.90;;;;;;5030948;28;20052;-65
2022/12/13 10:16:07;;;;;;;55.53;29.58;;;-2.70;99.90;;;;;;5027555;28;20089;-69
2022/12/13 10:18:35;;;;;;;57.42;28.40;;;-2.60;99.90;;;;;;5026719;28;20049;-68
2022/12/13 10:21:20;;;;;;;61.63;28.80;;;-2.60;99.90;;;;;;5028899;28;20124;-70
2022/12/13 10:23:46;;;;;;;57.78;29.45;;;-2.50;99.90;;;;;;5030762;28;20147;-69
2022/12/13 10:26:13;;;;;;;55.58;28.63;;;-2.40;99.90;;;;;;5029266;28;20052;-69
2022/12/13 10:28:40;;;;;;;52.65;28.27;;;-2.20;99.90;;;;;;5027471;28;20424;-69
2022/12/13 10:31:07;;;;;;;61.10;30.58;;;-2.20;99.90;;;;;;5038669;28;20499;-68
2022/12/13 10:33:35;;;;;;;54.50;28.85;;;-2.10;99.90;;;;;;5034846;28;20057;-68
2022/12/13 10:36:13;;;;;;;60.05;29.77;;;-2.00;99.90;;;;;;5025979;28;20082;-70
2022/12/13 10:38:44;;;;;;;57.85;30.15;;;-1.90;99.90;;;;;;5030693;28;20098;-67
2022/12/13 10:41:27;;;;;;;59.63;30.52;;;-1.80;99.90;;;;;;5008434;28;20475;-70
2022/12/13 10:44:21;;;;;;;53.67;29.00;;;-1.60;99.90;;;;;;5012336;28;20726;-69
2022/12/13 10:46:50;;;;;;;56.47;29.45;;;-1.50;99.90;;;;;;5024819;28;20053;-71
2022/12/13 10:49:26;;;;;;;48.40;26.85;;;-1.30;99.90;;;;;;5014029;28;20076;-71
2022/12/13 10:51:53;;;;;;;50.20;27.52;;;-1.10;99.90;;;;;;5031268;28;20049;-66
2022/12/13 10:54:29;;;;;;;48.60;27.15;;;-1.00;99.90;;;;;;5031709;28;20068;-69
2022/12/13 10:56:59;;;;;;;53.88;27.85;;;-0.90;99.90;;;;;;5026073;28;20045;-69
2022/12/13 10:59:26;;;;;;;48.53;25.75;;;-0.80;99.90;;;;;;5026463;28;20060;-69
2022/12/13 11:01:53;;;;;;;47.30;26.35;;;-0.70;99.90;;;;;;5029914;28;20105;-69
2022/12/13 11:04:32;;;;;;;48.05;26.85;;;-0.60;99.90;;;;;;5031175;28;20933;-71
2022/12/13 11:07:23;;;;;;;46.17;25.42;;;-0.50;99.90;;;;;;5031900;28;20720;-69
2022/12/13 11:09:49;;;;;;;51.17;26.88;;;-0.30;99.90;;;;;;5021366;28;20362;-71
2022/12/13 11:12:26;;;;;;;49.05;27.08;;;-0.30;99.90;;;;;;5000447;28;20041;-71
2022/12/13 11:15:18;;;;;;;47.47;26.10;;;-0.20;99.90;;;;;;5028445;28;20120;-67
2022/12/13 11:17:53;;;;;;;49.78;27.15;;;-0.20;99.90;;;;;;5026988;28;20095;-68
2022/12/13 11:20:30;;;;;;;48.05;26.85;;;-0.30;99.90;;;;;;5023898;28;20041;-68
2022/12/13 11:23:19;;;;;;;46.92;27.00;;;-0.30;99.90;;;;;;5034799;28;20041;-70
2022/12/13 11:25:45;;;;;;;44.80;26.50;;;-0.30;99.90;;;;;;5025228;28;20041;-71
2022/12/13 11:28:32;;;;;;;48.88;25.98;;;-0.30;99.90;;;;;;5028560;28;20098;-68
2022/12/13 11:31:07;;;;;;;50.20;27.90;;;-0.40;99.90;;;;;;5030749;28;21865;-72
2022/12/13 11:34:08;;;;;;;49.50;27.98;;;-0.40;99.90;;;;;;5028415;28;20068;-71
2022/12/13 11:36:56;;;;;;;45.25;25.10;;;-0.40;99.90;;;;;;5026529;28;20049;-71
2022/12/13 11:39:25;;;;;;;43.95;25.33;;;-0.30;99.90;;;;;;5017428;28;20075;-67
2022/12/13 11:42:24;;;;;;;40.28;24.25;;;-0.30;99.90;;;;;;5025920;28;21931;-71
2022/12/13 11:45:10;;;;;;;41.30;25.02;;;-0.30;99.90;;;;;;5030372;28;20041;-68
2022/12/13 11:47:54;;;;;;;44.85;23.50;;;-0.20;99.90;;;;;;5011148;28;20041;-69
2022/12/13 11:50:27;;;;;;;48.08;24.85;;;-0.20;99.90;;;;;;5020846;28;20999;-69
2022/12/13 11:52:57;;;;;;;44.55;24.75;;;-0.20;99.90;;;;;;5018326;28;20056;-70
2022/12/13 11:55:43;;;;;;;38.53;23.45;;;-0.20;99.90;;;;;;5028377;28;20058;-70
2022/12/13 11:58:18;;;;;;;40.15;21.80;;;-0.20;99.90;;;;;;5011295;28;20056;-69
2022/12/13 12:00:58;;;;;;;35.83;19.63;;;-0.20;99.90;;;;;;5028088;28;20452;-71
2022/12/13 12:03:36;;;;;;;34.88;20.02;;;-0.10;99.90;;;;;;5031956;28;20042;-68
2022/12/13 12:06:19;;;;;;;31.98;18.83;;;-0.20;99.90;;;;;;5037137;28;20053;-71
2022/12/13 12:08:50;;;;;;;;;;;-0.10;99.90;;;;;;5034654;28;20045;-67
2022/12/13 12:11:28;;;;;;;34.42;20.30;;;-0.20;99.90;;;;;;5028298;28;19944;-70
2022/12/13 12:14:22;;;;;;;36.47;20.90;;;-0.20;99.90;;;;;;5029988;28;20053;-68
2022/12/13 12:16:51;;;;;;;35.75;21.08;;;-0.10;99.90;;;;;;5028820;28;20063;-70
2022/12/13 12:19:23;;;;;;;33.60;19.17;;;-0.10;99.90;;;;;;5029281;28;20041;-70
2022/12/13 12:22:15;;;;;;;34.75;18.90;;;-0.10;99.90;;;;;;5028318;28;20060;-70
2022/12/13 12:24:59;;;;;;;38.10;20.45;;;-0.10;99.90;;;;;;5016938;28;20034;-66
2022/12/13 12:27:42;;;;;;;31.35;18.55;;;-0.10;99.90;;;;;;5018251;28;20048;-66
2022/12/13 12:30:14;;;;;;;31.52;18.05;;;0.00;99.90;;;;;;5030168;28;20057;-69
2022/12/13 12:33:01;;;;;;;33.28;18.80;;;-0.10;99.90;;;;;;5031478;28;20435;-70
2022/12/13 12:35:50;;;;;;;27.70;17.50;;;0.00;99.90;;;;;;5026722;28;20533;-70
2022/12/13 12:38:39;;;;;;;29.70;16.48;;;0.00;99.90;;;;;;5034149;28;20084;-70
2022/12/13 12:41:45;;;;;;;30.52;16.67;;;0.00;99.90;;;;;;5025722;28;20147;-66
2022/12/13 12:44:23;;;;;;;29.85;15.85;;;0.10;99.90;;;;;;5031562;28;20041;-66
2022/12/13 12:47:06;;;;;;;29.48;15.50;;;0.10;99.90;;;;;;5023830;28;20084;-66
2022/12/13 12:49:35;;;;;;;32.53;17.80;;;0.20;99.90;;;;;;5020645;28;20088;-69